sensor_id;sensor_type;location;lat;lon;timestamp;pressure;altitude;pressure_sealevel;temperature
70831;BMP180;58451;51.550;7.208;2024-01-15T00:01:24;99441.80;;;0.40
70831;BMP180;58451;51.550;7.208;2024-01-15T00:02:55;99439.60;;;0.40
70831;BMP180;58451;51.550;7.208;2024-01-15T00:04:26;99428.40;;;0.40
70831;BMP180;58451;51.550;7.208;2024-01-15T00:05:58;99426.40;;;0.40
70831;BMP180;58451;51.550;7.208;2024-01-15T00:07:29;99426.00;;;0.40
70831;BMP180;58451;51.550;7.208;2024-01-15T00:09:01;99420.60;;;0.40
70831;BMP180;58451;51.550;7.208;2024-01-15T00:10:33;99424.20;;;0.40
70831;BMP180;58451;51.550;7.208;2024-01-15T00:12:04;99418.60;;;0.46
70831;BMP180;58451;51.550;7.208;2024-01-15T00:13:36;99420.40;;;0.40
70831;BMP180;58451;51.550;7.208;2024-01-15T00:15:07;99408.60;;;0.50
70831;BMP180;58451;51.550;7.208;2024-01-15T00:16:40;99418.00;;;0.48
70831;BMP180;58451;51.550;7.208;2024-01-15T00:18:12;99419.60;;;0.50
70831;BMP180;58451;51.550;7.208;2024-01-15T00:19:43;99413.20;;;0.50
70831;BMP180;58451;51.550;7.208;2024-01-15T00:21:14;99413.40;;;0.50
70831;BMP180;58451;51.550;7.208;2024-01-15T00:22:45;99403.00;;;0.50
70831;BMP180;58451;51.550;7.208;2024-01-15T00:24:17;99402.60;;;0.50
70831;BMP180;58451;51.550;7.208;2024-01-15T00:25:48;99398.80;;;0.50
70831;BMP180;58451;51.550;7.208;2024-01-15T00:27:19;99400.20;;;0.50
70831;BMP180;58451;51.550;7.208;2024-01-15T00:28:50;99395.80;;;0.50
70831;BMP180;58451;51.550;7.208;2024-01-15T00:30:22;99400.60;;;0.50
70831;BMP180;58451;51.550;7.208;2024-01-15T00:31:53;99405.60;;;0.56
70831;BMP180;58451;51.550;7.208;2024-01-15T00:33:24;99399.60;;;0.56
70831;BMP180;58451;51.550;7.208;2024-01-15T00:34:56;99394.80;;;0.58
70831;BMP180;58451;51.550;7.208;2024-01-15T00:36:27;99389.20;;;0.60
70831;BMP180;58451;51.550;7.208;2024-01-15T00:37:58;99391.40;;;0.60
70831;BMP180;58451;51.550;7.208;2024-01-15T00:39:29;99393.00;;;0.60
70831;BMP180;58451;51.550;7.208;2024-01-15T00:41:02;99393.60;;;0.60
70831;BMP180;58451;51.550;7.208;2024-01-15T00:42:34;99388.00;;;0.60
70831;BMP180;58451;51.550;7.208;2024-01-15T00:44:05;99385.00;;;0.60
70831;BMP180;58451;51.550;7.208;2024-01-15T00:45:38;99385.20;;;0.60
70831;BMP180;58451;51.550;7.208;2024-01-15T00:47:10;99387.40;;;0.60
70831;BMP180;58451;51.550;7.208;2024-01-15T00:48:41;99386.00;;;0.60
70831;BMP180;58451;51.550;7.208;2024-01-15T00:50:12;99391.00;;;0.60
70831;BMP180;58451;51.550;7.208;2024-01-15T00:51:44;99385.00;;;0.60
70831;BMP180;58451;51.550;7.208;2024-01-15T00:53:15;99378.60;;;0.62
70831;BMP180;58451;51.550;7.208;2024-01-15T00:54:46;99379.80;;;0.60
70831;BMP180;58451;51.550;7.208;2024-01-15T00:56:17;99382.20;;;0.60
70831;BMP180;58451;51.550;7.208;2024-01-15T00:57:49;99388.80;;;0.66
70831;BMP180;58451;51.550;7.208;2024-01-15T00:59:20;99384.80;;;0.70
70831;BMP180;58451;51.550;7.208;2024-01-15T01:00:52;99389.00;;;0.70
70831;BMP180;58451;51.550;7.208;2024-01-15T01:02:23;99382.00;;;0.64
70831;BMP180;58451;51.550;7.208;2024-01-15T01:03:54;99383.00;;;0.62
70831;BMP180;58451;51.550;7.208;2024-01-15T01:05:26;99381.60;;;0.70
70831;BMP180;58451;51.550;7.208;2024-01-15T01:06:57;99383.20;;;0.70
70831;BMP180;58451;51.550;7.208;2024-01-15T01:08:28;99378.60;;;0.70
70831;BMP180;58451;51.550;7.208;2024-01-15T01:09:59;99382.60;;;0.70
70831;BMP180;58451;51.550;7.208;2024-01-15T01:11:31;99384.60;;;0.70
70831;BMP180;58451;51.550;7.208;2024-01-15T01:13:02;99379.00;;;0.70
70831;BMP180;58451;51.550;7.208;2024-01-15T01:14:33;99376.80;;;0.70
70831;BMP180;58451;51.550;7.208;2024-01-15T01:16:05;99379.20;;;0.70
70831;BMP180;58451;51.550;7.208;2024-01-15T01:17:36;99373.80;;;0.70
70831;BMP180;58451;51.550;7.208;2024-01-15T01:19:07;99372.60;;;0.70
70831;BMP180;58451;51.550;7.208;2024-01-15T01:20:39;99369.40;;;0.70
70831;BMP180;58451;51.550;7.208;2024-01-15T01:22:11;99366.80;;;0.70
70831;BMP180;58451;51.550;7.208;2024-01-15T01:23:42;99370.60;;;0.70
70831;BMP180;58451;51.550;7.208;2024-01-15T01:25:13;99365.40;;;0.70
70831;BMP180;58451;51.550;7.208;2024-01-15T01:26:44;99375.80;;;0.70
70831;BMP180;58451;51.550;7.208;2024-01-15T01:28:17;99367.80;;;0.70
70831;BMP180;58451;51.550;7.208;2024-01-15T01:29:48;99367.80;;;0.72
70831;BMP180;58451;51.550;7.208;2024-01-15T01:31:19;99365.60;;;0.70
70831;BMP180;58451;51.550;7.208;2024-01-15T01:32:54;99365.20;;;0.70
70831;BMP180;58451;51.550;7.208;2024-01-15T01:34:25;99361.40;;;0.70
70831;BMP180;58451;51.550;7.208;2024-01-15T01:35:56;99367.60;;;0.70
70831;BMP180;58451;51.550;7.208;2024-01-15T01:37:27;99361.20;;;0.70
70831;BMP180;58451;51.550;7.208;2024-01-15T01:38:59;99366.60;;;0.72
70831;BMP180;58451;51.550;7.208;2024-01-15T01:40:30;99366.00;;;0.70
70831;BMP180;58451;51.550;7.208;2024-01-15T01:42:01;99369.60;;;0.74
70831;BMP180;58451;51.550;7.208;2024-01-15T01:43:33;99364.20;;;0.76
70831;BMP180;58451;51.550;7.208;2024-01-15T01:45:05;99364.40;;;0.80
70831;BMP180;58451;51.550;7.208;2024-01-15T01:46:37;99367.00;;;0.74
70831;BMP180;58451;51.550;7.208;2024-01-15T01:48:13;99369.00;;;0.76
70831;BMP180;58451;51.550;7.208;2024-01-15T01:49:46;99364.60;;;0.80
70831;BMP180;58451;51.550;7.208;2024-01-15T01:51:18;99366.00;;;0.78
70831;BMP180;58451;51.550;7.208;2024-01-15T01:52:50;99372.80;;;0.78
70831;BMP180;58451;51.550;7.208;2024-01-15T01:54:23;99364.40;;;0.78
70831;BMP180;58451;51.550;7.208;2024-01-15T01:55:57;99362.60;;;0.76
70831;BMP180;58451;51.550;7.208;2024-01-15T01:57:30;99360.80;;;0.70
70831;BMP180;58451;51.550;7.208;2024-01-15T01:59:03;99364.20;;;0.76
70831;BMP180;58451;51.550;7.208;2024-01-15T02:00:36;99362.20;;;0.70
70831;BMP180;58451;51.550;7.208;2024-01-15T02:02:07;99366.00;;;0.70
70831;BMP180;58451;51.550;7.208;2024-01-15T02:03:40;99368.80;;;0.72
70831;BMP180;58451;51.550;7.208;2024-01-15T02:05:14;99369.00;;;0.72
70831;BMP180;58451;51.550;7.208;2024-01-15T02:06:49;99368.60;;;0.70
70831;BMP180;58451;51.550;7.208;2024-01-15T02:08:21;99367.60;;;0.72
70831;BMP180;58451;51.550;7.208;2024-01-15T02:09:53;99366.80;;;0.72
70831;BMP180;58451;51.550;7.208;2024-01-15T02:11:24;99365.40;;;0.70
70831;BMP180;58451;51.550;7.208;2024-01-15T02:12:55;99362.00;;;0.70
70831;BMP180;58451;51.550;7.208;2024-01-15T02:14:26;99357.20;;;0.70
70831;BMP180;58451;51.550;7.208;2024-01-15T02:15:57;99359.00;;;0.70
70831;BMP180;58451;51.550;7.208;2024-01-15T02:17:29;99362.00;;;0.70
70831;BMP180;58451;51.550;7.208;2024-01-15T02:19:00;99370.00;;;0.74
70831;BMP180;58451;51.550;7.208;2024-01-15T02:20:32;99365.00;;;0.72
70831;BMP180;58451;51.550;7.208;2024-01-15T02:22:04;99370.80;;;0.70
70831;BMP180;58451;51.550;7.208;2024-01-15T02:23:35;99369.60;;;0.80
70831;BMP180;58451;51.550;7.208;2024-01-15T02:25:06;99378.00;;;0.78
70831;BMP180;58451;51.550;7.208;2024-01-15T02:26:38;99375.60;;;0.76
70831;BMP180;58451;51.550;7.208;2024-01-15T02:28:12;99370.00;;;0.80
70831;BMP180;58451;51.550;7.208;2024-01-15T02:29:44;99365.80;;;0.78
70831;BMP180;58451;51.550;7.208;2024-01-15T02:31:16;99366.00;;;0.80
70831;BMP180;58451;51.550;7.208;2024-01-15T02:32:47;99368.20;;;0.80
70831;BMP180;58451;51.550;7.208;2024-01-15T02:34:18;99362.80;;;0.80
70831;BMP180;58451;51.550;7.208;2024-01-15T02:35:50;99368.00;;;0.80
70831;BMP180;58451;51.550;7.208;2024-01-15T02:37:21;99362.40;;;0.80
70831;BMP180;58451;51.550;7.208;2024-01-15T02:38:52;99363.60;;;0.80
70831;BMP180;58451;51.550;7.208;2024-01-15T02:40:23;99365.20;;;0.80
70831;BMP180;58451;51.550;7.208;2024-01-15T02:41:55;99361.40;;;0.80
70831;BMP180;58451;51.550;7.208;2024-01-15T02:43:28;99357.80;;;0.80
70831;BMP180;58451;51.550;7.208;2024-01-15T02:44:59;99357.20;;;0.80
70831;BMP180;58451;51.550;7.208;2024-01-15T02:46:30;99361.80;;;0.80
70831;BMP180;58451;51.550;7.208;2024-01-15T02:48:02;99358.60;;;0.80
70831;BMP180;58451;51.550;7.208;2024-01-15T02:49:33;99358.40;;;0.80
70831;BMP180;58451;51.550;7.208;2024-01-15T02:51:05;99368.20;;;0.78
70831;BMP180;58451;51.550;7.208;2024-01-15T02:52:36;99359.80;;;0.70
70831;BMP180;58451;51.550;7.208;2024-01-15T02:54:07;99358.20;;;0.72
70831;BMP180;58451;51.550;7.208;2024-01-15T02:55:38;99359.80;;;0.80
70831;BMP180;58451;51.550;7.208;2024-01-15T02:57:09;99360.60;;;0.80
70831;BMP180;58451;51.550;7.208;2024-01-15T02:58:41;99361.40;;;0.80
70831;BMP180;58451;51.550;7.208;2024-01-15T03:00:12;99365.40;;;0.80
70831;BMP180;58451;51.550;7.208;2024-01-15T03:01:44;99361.00;;;0.80
70831;BMP180;58451;51.550;7.208;2024-01-15T03:03:15;99351.20;;;0.80
70831;BMP180;58451;51.550;7.208;2024-01-15T03:04:46;99364.20;;;0.80
70831;BMP180;58451;51.550;7.208;2024-01-15T03:06:17;99359.40;;;0.80
70831;BMP180;58451;51.550;7.208;2024-01-15T03:07:48;99354.60;;;0.80
70831;BMP180;58451;51.550;7.208;2024-01-15T03:09:19;99362.40;;;0.80
70831;BMP180;58451;51.550;7.208;2024-01-15T03:10:50;99360.00;;;0.80
70831;BMP180;58451;51.550;7.208;2024-01-15T03:12:22;99361.20;;;0.70
70831;BMP180;58451;51.550;7.208;2024-01-15T03:13:54;99366.00;;;0.72
70831;BMP180;58451;51.550;7.208;2024-01-15T03:15:25;99362.40;;;0.76
70831;BMP180;58451;51.550;7.208;2024-01-15T03:16:56;99363.00;;;0.80
70831;BMP180;58451;51.550;7.208;2024-01-15T03:18:28;99370.80;;;0.80
70831;BMP180;58451;51.550;7.208;2024-01-15T03:20:00;99368.20;;;0.80
70831;BMP180;58451;51.550;7.208;2024-01-15T03:21:31;99363.00;;;0.80
70831;BMP180;58451;51.550;7.208;2024-01-15T03:23:02;99366.40;;;0.80
70831;BMP180;58451;51.550;7.208;2024-01-15T03:24:34;99366.40;;;0.78
70831;BMP180;58451;51.550;7.208;2024-01-15T03:26:05;99360.40;;;0.80
70831;BMP180;58451;51.550;7.208;2024-01-15T03:27:36;99360.00;;;0.80
70831;BMP180;58451;51.550;7.208;2024-01-15T03:29:08;99363.20;;;0.80
70831;BMP180;58451;51.550;7.208;2024-01-15T03:30:39;99365.60;;;0.80
70831;BMP180;58451;51.550;7.208;2024-01-15T03:32:10;99361.40;;;0.80
70831;BMP180;58451;51.550;7.208;2024-01-15T03:33:42;99357.80;;;0.80
70831;BMP180;58451;51.550;7.208;2024-01-15T03:35:13;99357.20;;;0.80
70831;BMP180;58451;51.550;7.208;2024-01-15T03:36:44;99368.40;;;0.80
70831;BMP180;58451;51.550;7.208;2024-01-15T03:38:15;99373.20;;;0.80
70831;BMP180;58451;51.550;7.208;2024-01-15T03:39:47;99373.00;;;0.80
70831;BMP180;58451;51.550;7.208;2024-01-15T03:41:18;99373.40;;;0.80
70831;BMP180;58451;51.550;7.208;2024-01-15T03:42:49;99369.80;;;0.80
70831;BMP180;58451;51.550;7.208;2024-01-15T03:44:21;99368.00;;;0.80
70831;BMP180;58451;51.550;7.208;2024-01-15T03:45:52;99372.60;;;0.80
70831;BMP180;58451;51.550;7.208;2024-01-15T03:47:24;99369.60;;;0.84
70831;BMP180;58451;51.550;7.208;2024-01-15T03:48:55;99370.40;;;0.86
70831;BMP180;58451;51.550;7.208;2024-01-15T03:50:26;99371.00;;;0.90
70831;BMP180;58451;51.550;7.208;2024-01-15T03:51:57;99363.20;;;0.90
70831;BMP180;58451;51.550;7.208;2024-01-15T03:53:28;99360.20;;;0.90
70831;BMP180;58451;51.550;7.208;2024-01-15T03:54:59;99361.60;;;0.90
70831;BMP180;58451;51.550;7.208;2024-01-15T03:56:33;99359.60;;;0.90
70831;BMP180;58451;51.550;7.208;2024-01-15T03:58:04;99360.40;;;0.90
70831;BMP180;58451;51.550;7.208;2024-01-15T03:59:35;99355.00;;;0.90
70831;BMP180;58451;51.550;7.208;2024-01-15T04:01:10;99355.80;;;0.90
70831;BMP180;58451;51.550;7.208;2024-01-15T04:02:41;99355.80;;;0.94
70831;BMP180;58451;51.550;7.208;2024-01-15T04:04:13;99351.40;;;0.92
70831;BMP180;58451;51.550;7.208;2024-01-15T04:05:48;99349.40;;;1.00
70831;BMP180;58451;51.550;7.208;2024-01-15T04:07:19;99353.80;;;1.00
70831;BMP180;58451;51.550;7.208;2024-01-15T04:08:50;99352.20;;;0.98
70831;BMP180;58451;51.550;7.208;2024-01-15T04:10:21;99348.40;;;0.90
70831;BMP180;58451;51.550;7.208;2024-01-15T04:11:53;99346.00;;;0.96
70831;BMP180;58451;51.550;7.208;2024-01-15T04:13:25;99336.60;;;0.90
70831;BMP180;58451;51.550;7.208;2024-01-15T04:14:56;99334.20;;;0.90
70831;BMP180;58451;51.550;7.208;2024-01-15T04:16:27;99330.00;;;0.90
70831;BMP180;58451;51.550;7.208;2024-01-15T04:17:59;99327.00;;;0.90
70831;BMP180;58451;51.550;7.208;2024-01-15T04:19:31;99325.60;;;0.90
70831;BMP180;58451;51.550;7.208;2024-01-15T04:21:05;99327.60;;;0.90
70831;BMP180;58451;51.550;7.208;2024-01-15T04:22:37;99331.20;;;0.90
70831;BMP180;58451;51.550;7.208;2024-01-15T04:24:08;99324.20;;;0.90
70831;BMP180;58451;51.550;7.208;2024-01-15T04:25:39;99326.40;;;0.90
70831;BMP180;58451;51.550;7.208;2024-01-15T04:27:14;99326.00;;;0.90
70831;BMP180;58451;51.550;7.208;2024-01-15T04:28:45;99321.60;;;0.90
70831;BMP180;58451;51.550;7.208;2024-01-15T04:30:16;99320.80;;;0.90
70831;BMP180;58451;51.550;7.208;2024-01-15T04:31:47;99327.00;;;0.90
70831;BMP180;58451;51.550;7.208;2024-01-15T04:33:19;99322.80;;;0.90
70831;BMP180;58451;51.550;7.208;2024-01-15T04:34:50;99316.60;;;0.90
70831;BMP180;58451;51.550;7.208;2024-01-15T04:36:21;99310.40;;;0.90
70831;BMP180;58451;51.550;7.208;2024-01-15T04:37:53;99301.80;;;0.90
70831;BMP180;58451;51.550;7.208;2024-01-15T04:39:24;99305.20;;;0.90
70831;BMP180;58451;51.550;7.208;2024-01-15T04:40:55;99306.00;;;0.90
70831;BMP180;58451;51.550;7.208;2024-01-15T04:42:29;99300.60;;;0.90
70831;BMP180;58451;51.550;7.208;2024-01-15T04:44:00;99310.80;;;0.94
70831;BMP180;58451;51.550;7.208;2024-01-15T04:45:32;99316.60;;;1.00
70831;BMP180;58451;51.550;7.208;2024-01-15T04:47:03;99308.00;;;1.00
70831;BMP180;58451;51.550;7.208;2024-01-15T04:48:34;99306.20;;;0.98
70831;BMP180;58451;51.550;7.208;2024-01-15T04:50:06;99307.80;;;0.90
70831;BMP180;58451;51.550;7.208;2024-01-15T04:51:37;99302.40;;;0.92
70831;BMP180;58451;51.550;7.208;2024-01-15T04:53:09;99306.60;;;0.98
70831;BMP180;58451;51.550;7.208;2024-01-15T04:54:44;99309.00;;;1.00
70831;BMP180;58451;51.550;7.208;2024-01-15T04:56:15;99310.20;;;1.00
70831;BMP180;58451;51.550;7.208;2024-01-15T04:57:46;99305.60;;;1.00
70831;BMP180;58451;51.550;7.208;2024-01-15T04:59:18;99310.20;;;1.00
70831;BMP180;58451;51.550;7.208;2024-01-15T05:00:49;99300.20;;;1.00
70831;BMP180;58451;51.550;7.208;2024-01-15T05:02:20;99299.00;;;1.00
70831;BMP180;58451;51.550;7.208;2024-01-15T05:03:51;99296.80;;;1.00
70831;BMP180;58451;51.550;7.208;2024-01-15T05:05:23;99295.20;;;1.00
70831;BMP180;58451;51.550;7.208;2024-01-15T05:06:55;99298.20;;;1.00
70831;BMP180;58451;51.550;7.208;2024-01-15T05:08:26;99300.00;;;1.00
70831;BMP180;58451;51.550;7.208;2024-01-15T05:09:57;99298.60;;;1.00
70831;BMP180;58451;51.550;7.208;2024-01-15T05:11:29;99297.00;;;1.00
70831;BMP180;58451;51.550;7.208;2024-01-15T05:13:00;99297.20;;;1.00
70831;BMP180;58451;51.550;7.208;2024-01-15T05:14:31;99302.60;;;1.00
70831;BMP180;58451;51.550;7.208;2024-01-15T05:16:02;99288.40;;;1.00
70831;BMP180;58451;51.550;7.208;2024-01-15T05:17:37;99286.20;;;1.00
70831;BMP180;58451;51.550;7.208;2024-01-15T05:19:08;99284.60;;;1.00
70831;BMP180;58451;51.550;7.208;2024-01-15T05:20:40;99283.40;;;1.00
70831;BMP180;58451;51.550;7.208;2024-01-15T05:22:11;99282.60;;;1.00
70831;BMP180;58451;51.550;7.208;2024-01-15T05:23:42;99283.00;;;1.00
70831;BMP180;58451;51.550;7.208;2024-01-15T05:25:13;99287.60;;;1.00
70831;BMP180;58451;51.550;7.208;2024-01-15T05:26:44;99282.40;;;1.00
70831;BMP180;58451;51.550;7.208;2024-01-15T05:28:17;99279.80;;;1.00
70831;BMP180;58451;51.550;7.208;2024-01-15T05:29:48;99284.00;;;1.00
70831;BMP180;58451;51.550;7.208;2024-01-15T05:31:19;99280.80;;;1.00
70831;BMP180;58451;51.550;7.208;2024-01-15T05:32:50;99283.00;;;1.00
70831;BMP180;58451;51.550;7.208;2024-01-15T05:34:22;99282.60;;;0.98
70831;BMP180;58451;51.550;7.208;2024-01-15T05:35:53;99290.00;;;1.00
70831;BMP180;58451;51.550;7.208;2024-01-15T05:37:25;99288.40;;;1.00
70831;BMP180;58451;51.550;7.208;2024-01-15T05:38:56;99281.20;;;1.00
70831;BMP180;58451;51.550;7.208;2024-01-15T05:40:27;99290.20;;;1.00
70831;BMP180;58451;51.550;7.208;2024-01-15T05:41:58;99291.40;;;1.00
70831;BMP180;58451;51.550;7.208;2024-01-15T05:43:31;99289.60;;;1.00
70831;BMP180;58451;51.550;7.208;2024-01-15T05:45:03;99287.80;;;1.00
70831;BMP180;58451;51.550;7.208;2024-01-15T05:46:35;99288.60;;;1.00
70831;BMP180;58451;51.550;7.208;2024-01-15T05:48:06;99288.60;;;1.00
70831;BMP180;58451;51.550;7.208;2024-01-15T05:49:38;99279.00;;;1.00
70831;BMP180;58451;51.550;7.208;2024-01-15T05:51:10;99283.00;;;1.00
70831;BMP180;58451;51.550;7.208;2024-01-15T05:52:41;99285.40;;;1.00
70831;BMP180;58451;51.550;7.208;2024-01-15T05:54:12;99281.00;;;1.00
70831;BMP180;58451;51.550;7.208;2024-01-15T05:55:44;99273.80;;;1.00
70831;BMP180;58451;51.550;7.208;2024-01-15T05:57:15;99285.60;;;1.00
70831;BMP180;58451;51.550;7.208;2024-01-15T05:58:47;99281.00;;;1.00
70831;BMP180;58451;51.550;7.208;2024-01-15T06:00:18;99282.00;;;1.00
70831;BMP180;58451;51.550;7.208;2024-01-15T06:01:49;99279.40;;;1.00
70831;BMP180;58451;51.550;7.208;2024-01-15T06:03:22;99290.20;;;1.00
70831;BMP180;58451;51.550;7.208;2024-01-15T06:04:53;99287.40;;;1.00
70831;BMP180;58451;51.550;7.208;2024-01-15T06:06:25;99286.20;;;1.00
70831;BMP180;58451;51.550;7.208;2024-01-15T06:07:56;99285.20;;;1.00
70831;BMP180;58451;51.550;7.208;2024-01-15T06:09:27;99274.60;;;1.00
70831;BMP180;58451;51.550;7.208;2024-01-15T06:10:59;99277.20;;;1.00
70831;BMP180;58451;51.550;7.208;2024-01-15T06:12:33;99269.20;;;0.90
70831;BMP180;58451;51.550;7.208;2024-01-15T06:14:04;99270.20;;;0.90
70831;BMP180;58451;51.550;7.208;2024-01-15T06:15:36;99265.20;;;0.90
70831;BMP180;58451;51.550;7.208;2024-01-15T06:17:08;99263.00;;;0.90
70831;BMP180;58451;51.550;7.208;2024-01-15T06:18:39;99269.20;;;0.90
70831;BMP180;58451;51.550;7.208;2024-01-15T06:20:12;99267.00;;;0.90
70831;BMP180;58451;51.550;7.208;2024-01-15T06:21:44;99258.80;;;0.90
70831;BMP180;58451;51.550;7.208;2024-01-15T06:23:15;99261.60;;;0.90
70831;BMP180;58451;51.550;7.208;2024-01-15T06:24:49;99255.80;;;0.90
70831;BMP180;58451;51.550;7.208;2024-01-15T06:26:21;99254.80;;;0.90
70831;BMP180;58451;51.550;7.208;2024-01-15T06:27:52;99258.40;;;0.90
70831;BMP180;58451;51.550;7.208;2024-01-15T06:29:26;99258.60;;;0.90
70831;BMP180;58451;51.550;7.208;2024-01-15T06:30:58;99255.00;;;0.90
70831;BMP180;58451;51.550;7.208;2024-01-15T06:32:29;99251.40;;;0.90
70831;BMP180;58451;51.550;7.208;2024-01-15T06:34:01;99250.80;;;0.94
70831;BMP180;58451;51.550;7.208;2024-01-15T06:35:32;99260.20;;;1.00
70831;BMP180;58451;51.550;7.208;2024-01-15T06:37:06;99252.40;;;1.00
70831;BMP180;58451;51.550;7.208;2024-01-15T06:38:37;99257.20;;;1.00
70831;BMP180;58451;51.550;7.208;2024-01-15T06:40:08;99259.80;;;1.00
70831;BMP180;58451;51.550;7.208;2024-01-15T06:41:39;99263.60;;;1.00
70831;BMP180;58451;51.550;7.208;2024-01-15T06:43:14;99257.40;;;1.00
70831;BMP180;58451;51.550;7.208;2024-01-15T06:44:49;99252.80;;;1.00
70831;BMP180;58451;51.550;7.208;2024-01-15T06:46:22;99256.00;;;1.00
70831;BMP180;58451;51.550;7.208;2024-01-15T06:47:53;99258.00;;;1.00
70831;BMP180;58451;51.550;7.208;2024-01-15T06:49:24;99256.00;;;1.00
70831;BMP180;58451;51.550;7.208;2024-01-15T06:50:56;99251.20;;;1.00
70831;BMP180;58451;51.550;7.208;2024-01-15T06:52:27;99253.40;;;1.00
70831;BMP180;58451;51.550;7.208;2024-01-15T06:53:58;99254.20;;;1.00
70831;BMP180;58451;51.550;7.208;2024-01-15T06:55:29;99251.40;;;1.00
70831;BMP180;58451;51.550;7.208;2024-01-15T06:57:01;99252.80;;;1.00
70831;BMP180;58451;51.550;7.208;2024-01-15T06:58:32;99255.20;;;1.00
70831;BMP180;58451;51.550;7.208;2024-01-15T07:00:04;99258.60;;;1.00
70831;BMP180;58451;51.550;7.208;2024-01-15T07:01:38;99260.40;;;1.00
70831;BMP180;58451;51.550;7.208;2024-01-15T07:03:09;99265.40;;;1.00
70831;BMP180;58451;51.550;7.208;2024-01-15T07:04:41;99264.40;;;1.08
70831;BMP180;58451;51.550;7.208;2024-01-15T07:06:14;99260.00;;;1.08
70831;BMP180;58451;51.550;7.208;2024-01-15T07:07:46;99257.80;;;1.10
70831;BMP180;58451;51.550;7.208;2024-01-15T07:09:18;99260.20;;;1.10
70831;BMP180;58451;51.550;7.208;2024-01-15T07:10:49;99260.40;;;1.08
70831;BMP180;58451;51.550;7.208;2024-01-15T07:12:20;99264.60;;;1.10
70831;BMP180;58451;51.550;7.208;2024-01-15T07:13:51;99267.00;;;1.10
70831;BMP180;58451;51.550;7.208;2024-01-15T07:15:22;99267.00;;;1.10
70831;BMP180;58451;51.550;7.208;2024-01-15T07:16:54;99264.60;;;1.10
70831;BMP180;58451;51.550;7.208;2024-01-15T07:18:25;99263.00;;;1.10
70831;BMP180;58451;51.550;7.208;2024-01-15T07:19:57;99266.00;;;1.10
70831;BMP180;58451;51.550;7.208;2024-01-15T07:21:28;99263.80;;;1.10
70831;BMP180;58451;51.550;7.208;2024-01-15T07:22:59;99262.40;;;1.14
70831;BMP180;58451;51.550;7.208;2024-01-15T07:24:30;99265.40;;;1.20
70831;BMP180;58451;51.550;7.208;2024-01-15T07:26:01;99262.80;;;1.20
70831;BMP180;58451;51.550;7.208;2024-01-15T07:27:33;99264.40;;;1.20
70831;BMP180;58451;51.550;7.208;2024-01-15T07:29:04;99260.40;;;1.20
70831;BMP180;58451;51.550;7.208;2024-01-15T07:30:35;99259.40;;;1.20
70831;BMP180;58451;51.550;7.208;2024-01-15T07:32:09;99256.00;;;1.20
70831;BMP180;58451;51.550;7.208;2024-01-15T07:33:40;99258.80;;;1.20
70831;BMP180;58451;51.550;7.208;2024-01-15T07:35:14;99253.20;;;1.20
70831;BMP180;58451;51.550;7.208;2024-01-15T07:36:46;99251.00;;;1.20
70831;BMP180;58451;51.550;7.208;2024-01-15T07:38:17;99250.00;;;1.20
70831;BMP180;58451;51.550;7.208;2024-01-15T07:39:49;99254.60;;;1.20
70831;BMP180;58451;51.550;7.208;2024-01-15T07:41:20;99260.00;;;1.22
70831;BMP180;58451;51.550;7.208;2024-01-15T07:42:51;99256.40;;;1.30
70831;BMP180;58451;51.550;7.208;2024-01-15T07:44:23;99256.00;;;1.30
70831;BMP180;58451;51.550;7.208;2024-01-15T07:45:54;99261.40;;;1.30
70831;BMP180;58451;51.550;7.208;2024-01-15T07:47:25;99253.60;;;1.30
70831;BMP180;58451;51.550;7.208;2024-01-15T07:48:57;99256.00;;;1.30
70831;BMP180;58451;51.550;7.208;2024-01-15T07:50:28;99256.40;;;1.30
70831;BMP180;58451;51.550;7.208;2024-01-15T07:52:00;99257.60;;;1.30
70831;BMP180;58451;51.550;7.208;2024-01-15T07:53:31;99252.60;;;1.30
70831;BMP180;58451;51.550;7.208;2024-01-15T07:55:03;99252.40;;;1.30
70831;BMP180;58451;51.550;7.208;2024-01-15T07:56:57;99260.20;;;1.30
70831;BMP180;58451;51.550;7.208;2024-01-15T07:58:29;99256.40;;;1.30
70831;BMP180;58451;51.550;7.208;2024-01-15T08:00:00;99263.00;;;1.26
70831;BMP180;58451;51.550;7.208;2024-01-15T08:01:37;99254.40;;;1.20
70831;BMP180;58451;51.550;7.208;2024-01-15T08:03:08;99259.40;;;1.20
70831;BMP180;58451;51.550;7.208;2024-01-15T08:04:40;99260.20;;;1.26
70831;BMP180;58451;51.550;7.208;2024-01-15T08:06:11;99259.20;;;1.20
70831;BMP180;58451;51.550;7.208;2024-01-15T08:07:43;99256.80;;;1.20
70831;BMP180;58451;51.550;7.208;2024-01-15T08:09:14;99261.40;;;1.20
70831;BMP180;58451;51.550;7.208;2024-01-15T08:10:46;99252.00;;;1.20
70831;BMP180;58451;51.550;7.208;2024-01-15T08:12:18;99251.80;;;1.20
70831;BMP180;58451;51.550;7.208;2024-01-15T08:13:49;99255.60;;;1.20
70831;BMP180;58451;51.550;7.208;2024-01-15T08:15:21;99249.80;;;1.20
70831;BMP180;58451;51.550;7.208;2024-01-15T08:16:52;99255.60;;;1.10
70831;BMP180;58451;51.550;7.208;2024-01-15T08:18:23;99254.00;;;1.10
70831;BMP180;58451;51.550;7.208;2024-01-15T08:19:54;99257.00;;;1.10
70831;BMP180;58451;51.550;7.208;2024-01-15T08:21:26;99256.20;;;1.02
70831;BMP180;58451;51.550;7.208;2024-01-15T08:23:01;99252.40;;;1.00
70831;BMP180;58451;51.550;7.208;2024-01-15T08:24:32;99261.00;;;1.00
70831;BMP180;58451;51.550;7.208;2024-01-15T08:26:03;99250.20;;;0.90
70831;BMP180;58451;51.550;7.208;2024-01-15T08:27:34;99252.60;;;0.90
70831;BMP180;58451;51.550;7.208;2024-01-15T08:29:06;99254.40;;;0.80
70831;BMP180;58451;51.550;7.208;2024-01-15T08:30:37;99256.40;;;0.80
70831;BMP180;58451;51.550;7.208;2024-01-15T08:32:08;99255.40;;;0.70
70831;BMP180;58451;51.550;7.208;2024-01-15T08:33:44;99244.00;;;0.68
70831;BMP180;58451;51.550;7.208;2024-01-15T08:35:19;99249.20;;;0.60
70831;BMP180;58451;51.550;7.208;2024-01-15T08:36:54;99249.00;;;0.60
70831;BMP180;58451;51.550;7.208;2024-01-15T08:38:25;99252.00;;;0.58
70831;BMP180;58451;51.550;7.208;2024-01-15T08:39:56;99250.40;;;0.50
70831;BMP180;58451;51.550;7.208;2024-01-15T08:41:27;99249.40;;;0.50
70831;BMP180;58451;51.550;7.208;2024-01-15T08:43:00;99253.00;;;0.50
70831;BMP180;58451;51.550;7.208;2024-01-15T08:44:32;99250.00;;;0.54
70831;BMP180;58451;51.550;7.208;2024-01-15T08:46:04;99256.80;;;0.60
70831;BMP180;58451;51.550;7.208;2024-01-15T08:47:36;99249.20;;;0.60
70831;BMP180;58451;51.550;7.208;2024-01-15T08:49:07;99249.00;;;0.60
70831;BMP180;58451;51.550;7.208;2024-01-15T08:50:38;99249.20;;;0.60
70831;BMP180;58451;51.550;7.208;2024-01-15T08:52:10;99253.20;;;0.60
70831;BMP180;58451;51.550;7.208;2024-01-15T08:53:41;99255.00;;;0.60
70831;BMP180;58451;51.550;7.208;2024-01-15T08:55:12;99253.80;;;0.60
70831;BMP180;58451;51.550;7.208;2024-01-15T08:56:44;99256.20;;;0.60